sensor_id;sensor_type;location;lat;lon;timestamp;P1;durP1;ratioP1;P2;durP2;ratioP2
28447;SDS011;15675;52.870;-1.416;2023-02-04T00:00:09;4.72;;;1.88;;
28447;SDS011;15675;52.870;-1.416;2023-02-04T00:02:38;6.65;;;2.20;;
28447;SDS011;15675;52.870;-1.416;2023-02-04T00:05:05;3.60;;;1.77;;
28447;SDS011;15675;52.870;-1.416;2023-02-04T00:07:31;4.93;;;1.85;;
28447;SDS011;15675;52.870;-1.416;2023-02-04T00:09:56;5.18;;;2.13;;
28447;SDS011;15675;52.870;-1.416;2023-02-04T00:12:22;6.18;;;2.00;;
28447;SDS011;15675;52.870;-1.416;2023-02-04T00:14:47;5.80;;;1.80;;
28447;SDS011;15675;52.870;-1.416;2023-02-04T00:17:13;4.07;;;1.67;;
28447;SDS011;15675;52.870;-1.416;2023-02-04T00:19:39;6.90;;;2.05;;
28447;SDS011;15675;52.870;-1.416;2023-02-04T00:22:05;7.30;;;2.10;;
28447;SDS011;15675;52.870;-1.416;2023-02-04T00:24:32;3.85;;;1.65;;
28447;SDS011;15675;52.870;-1.416;2023-02-04T00:26:58;4.53;;;1.75;;
28447;SDS011;15675;52.870;-1.416;2023-02-04T00:29:24;5.10;;;1.88;;
28447;SDS011;15675;52.870;-1.416;2023-02-04T00:31:49;7.35;;;1.70;;
28447;SDS011;15675;52.870;-1.416;2023-02-04T00:34:15;5.28;;;2.13;;
28447;SDS011;15675;52.870;-1.416;2023-02-04T00:36:42;8.10;;;1.98;;
28447;SDS011;15675;52.870;-1.416;2023-02-04T00:39:08;3.33;;;1.70;;
28447;SDS011;15675;52.870;-1.416;2023-02-04T00:41:33;4.03;;;1.92;;
28447;SDS011;15675;52.870;-1.416;2023-02-04T00:43:59;6.93;;;2.10;;
28447;SDS011;15675;52.870;-1.416;2023-02-04T00:46:24;5.72;;;1.83;;
28447;SDS011;15675;52.870;-1.416;2023-02-04T00:48:50;4.78;;;1.92;;
28447;SDS011;15675;52.870;-1.416;2023-02-04T00:51:15;4.65;;;1.48;;
28447;SDS011;15675;52.870;-1.416;2023-02-04T00:53:41;3.72;;;2.00;;
28447;SDS011;15675;52.870;-1.416;2023-02-04T00:56:06;9.57;;;2.35;;
28447;SDS011;15675;52.870;-1.416;2023-02-04T00:58:32;6.15;;;1.92;;
28447;SDS011;15675;52.870;-1.416;2023-02-04T01:00:58;6.18;;;2.20;;
28447;SDS011;15675;52.870;-1.416;2023-02-04T01:03:23;6.35;;;1.90;;
28447;SDS011;15675;52.870;-1.416;2023-02-04T01:05:49;7.43;;;2.45;;
28447;SDS011;15675;52.870;-1.416;2023-02-04T01:08:14;5.63;;;1.92;;
28447;SDS011;15675;52.870;-1.416;2023-02-04T01:10:40;5.55;;;1.92;;
28447;SDS011;15675;52.870;-1.416;2023-02-04T01:13:05;4.43;;;1.88;;
28447;SDS011;15675;52.870;-1.416;2023-02-04T01:15:33;4.03;;;1.50;;
28447;SDS011;15675;52.870;-1.416;2023-02-04T01:17:58;4.28;;;2.00;;
28447;SDS011;15675;52.870;-1.416;2023-02-04T01:20:24;5.85;;;2.35;;
28447;SDS011;15675;52.870;-1.416;2023-02-04T01:22:50;8.30;;;2.45;;
28447;SDS011;15675;52.870;-1.416;2023-02-04T01:25:15;6.47;;;2.67;;
28447;SDS011;15675;52.870;-1.416;2023-02-04T01:27:42;8.13;;;2.25;;
28447;SDS011;15675;52.870;-1.416;2023-02-04T01:30:09;6.38;;;3.28;;
28447;SDS011;15675;52.870;-1.416;2023-02-04T01:32:35;5.28;;;2.47;;
28447;SDS011;15675;52.870;-1.416;2023-02-04T01:35:01;4.07;;;2.53;;
28447;SDS011;15675;52.870;-1.416;2023-02-04T01:37:26;6.57;;;2.65;;
28447;SDS011;15675;52.870;-1.416;2023-02-04T01:39:52;7.10;;;2.60;;
28447;SDS011;15675;52.870;-1.416;2023-02-04T01:42:17;8.70;;;2.30;;
28447;SDS011;15675;52.870;-1.416;2023-02-04T01:44:43;3.85;;;2.35;;
28447;SDS011;15675;52.870;-1.416;2023-02-04T01:47:09;5.63;;;2.25;;
28447;SDS011;15675;52.870;-1.416;2023-02-04T01:49:34;6.28;;;2.35;;
28447;SDS011;15675;52.870;-1.416;2023-02-04T01:52:00;5.20;;;2.17;;
28447;SDS011;15675;52.870;-1.416;2023-02-04T01:54:27;6.55;;;1.77;;
28447;SDS011;15675;52.870;-1.416;2023-02-04T01:56:52;5.47;;;1.88;;
28447;SDS011;15675;52.870;-1.416;2023-02-04T01:59:19;6.53;;;2.13;;
28447;SDS011;15675;52.870;-1.416;2023-02-04T02:01:52;4.20;;;2.15;;
28447;SDS011;15675;52.870;-1.416;2023-02-04T02:04:28;3.05;;;2.00;;
28447;SDS011;15675;52.870;-1.416;2023-02-04T02:06:57;6.05;;;2.03;;
28447;SDS011;15675;52.870;-1.416;2023-02-04T02:09:26;4.47;;;1.45;;
28447;SDS011;15675;52.870;-1.416;2023-02-04T02:11:52;3.50;;;1.65;;
28447;SDS011;15675;52.870;-1.416;2023-02-04T02:14:18;6.82;;;1.73;;
28447;SDS011;15675;52.870;-1.416;2023-02-04T02:16:44;2.35;;;1.65;;
28447;SDS011;15675;52.870;-1.416;2023-02-04T02:19:11;4.82;;;2.05;;
28447;SDS011;15675;52.870;-1.416;2023-02-04T02:21:46;3.08;;;1.88;;
28447;SDS011;15675;52.870;-1.416;2023-02-04T02:24:30;6.13;;;2.40;;
28447;SDS011;15675;52.870;-1.416;2023-02-04T02:26:58;4.45;;;2.10;;
28447;SDS011;15675;52.870;-1.416;2023-02-04T02:29:27;5.35;;;2.22;;
28447;SDS011;15675;52.870;-1.416;2023-02-04T02:31:53;5.35;;;2.08;;
28447;SDS011;15675;52.870;-1.416;2023-02-04T02:34:23;5.57;;;2.05;;
28447;SDS011;15675;52.870;-1.416;2023-02-04T02:36:51;4.20;;;1.85;;
28447;SDS011;15675;52.870;-1.416;2023-02-04T02:39:17;2.35;;;1.67;;
28447;SDS011;15675;52.870;-1.416;2023-02-04T02:41:43;9.60;;;1.95;;
28447;SDS011;15675;52.870;-1.416;2023-02-04T02:44:10;5.30;;;1.65;;
28447;SDS011;15675;52.870;-1.416;2023-02-04T02:46:38;8.00;;;2.05;;
28447;SDS011;15675;52.870;-1.416;2023-02-04T02:49:04;5.97;;;1.90;;
28447;SDS011;15675;52.870;-1.416;2023-02-04T02:51:30;3.95;;;1.70;;
28447;SDS011;15675;52.870;-1.416;2023-02-04T02:53:55;2.65;;;1.67;;
28447;SDS011;15675;52.870;-1.416;2023-02-04T02:56:22;3.20;;;1.33;;
28447;SDS011;15675;52.870;-1.416;2023-02-04T02:58:47;5.43;;;2.10;;
28447;SDS011;15675;52.870;-1.416;2023-02-04T03:01:13;3.22;;;1.83;;
28447;SDS011;15675;52.870;-1.416;2023-02-04T03:03:44;6.60;;;2.00;;
28447;SDS011;15675;52.870;-1.416;2023-02-04T03:06:20;3.53;;;1.80;;
28447;SDS011;15675;52.870;-1.416;2023-02-04T03:08:49;6.15;;;2.15;;
28447;SDS011;15675;52.870;-1.416;2023-02-04T03:11:17;5.55;;;1.55;;
28447;SDS011;15675;52.870;-1.416;2023-02-04T03:13:42;3.03;;;1.50;;
28447;SDS011;15675;52.870;-1.416;2023-02-04T03:16:08;5.53;;;1.65;;
28447;SDS011;15675;52.870;-1.416;2023-02-04T03:18:34;3.60;;;1.77;;
28447;SDS011;15675;52.870;-1.416;2023-02-04T03:21:01;3.17;;;1.85;;
28447;SDS011;15675;52.870;-1.416;2023-02-04T03:23:29;6.07;;;2.15;;
28447;SDS011;15675;52.870;-1.416;2023-02-04T03:25:57;3.33;;;1.73;;
28447;SDS011;15675;52.870;-1.416;2023-02-04T03:28:22;4.57;;;2.08;;
28447;SDS011;15675;52.870;-1.416;2023-02-04T03:30:48;4.80;;;1.80;;
28447;SDS011;15675;52.870;-1.416;2023-02-04T03:33:17;4.50;;;2.03;;
28447;SDS011;15675;52.870;-1.416;2023-02-04T03:35:43;6.25;;;2.00;;
28447;SDS011;15675;52.870;-1.416;2023-02-04T03:38:08;6.97;;;1.77;;
28447;SDS011;15675;52.870;-1.416;2023-02-04T03:40:34;3.47;;;1.58;;
28447;SDS011;15675;52.870;-1.416;2023-02-04T03:42:59;4.30;;;1.60;;
28447;SDS011;15675;52.870;-1.416;2023-02-04T03:45:25;4.60;;;1.85;;
28447;SDS011;15675;52.870;-1.416;2023-02-04T03:47:50;2.88;;;1.55;;
28447;SDS011;15675;52.870;-1.416;2023-02-04T03:50:16;4.93;;;1.67;;
28447;SDS011;15675;52.870;-1.416;2023-02-04T03:52:41;5.40;;;1.80;;
28447;SDS011;15675;52.870;-1.416;2023-02-04T03:55:08;4.78;;;1.90;;
28447;SDS011;15675;52.870;-1.416;2023-02-04T03:57:34;4.63;;;1.98;;
28447;SDS011;15675;52.870;-1.416;2023-02-04T03:59:59;3.55;;;1.38;;
28447;SDS011;15675;52.870;-1.416;2023-02-04T04:02:25;4.90;;;2.00;;
28447;SDS011;15675;52.870;-1.416;2023-02-04T04:04:51;5.93;;;2.45;;
28447;SDS011;15675;52.870;-1.416;2023-02-04T04:07:17;3.65;;;1.88;;
28447;SDS011;15675;52.870;-1.416;2023-02-04T04:09:42;6.38;;;2.13;;
28447;SDS011;15675;52.870;-1.416;2023-02-04T04:12:08;5.97;;;2.10;;
28447;SDS011;15675;52.870;-1.416;2023-02-04T04:14:33;8.93;;;2.55;;
28447;SDS011;15675;52.870;-1.416;2023-02-04T04:16:59;6.75;;;2.35;;
28447;SDS011;15675;52.870;-1.416;2023-02-04T04:19:25;5.50;;;2.30;;
28447;SDS011;15675;52.870;-1.416;2023-02-04T04:21:50;7.85;;;2.97;;
28447;SDS011;15675;52.870;-1.416;2023-02-04T04:24:16;7.13;;;3.22;;
28447;SDS011;15675;52.870;-1.416;2023-02-04T04:26:41;4.93;;;2.10;;
28447;SDS011;15675;52.870;-1.416;2023-02-04T04:29:07;6.90;;;2.17;;
28447;SDS011;15675;52.870;-1.416;2023-02-04T04:31:32;6.13;;;2.38;;
28447;SDS011;15675;52.870;-1.416;2023-02-04T04:33:58;7.07;;;2.17;;
28447;SDS011;15675;52.870;-1.416;2023-02-04T04:36:23;7.25;;;2.45;;
28447;SDS011;15675;52.870;-1.416;2023-02-04T04:38:49;4.47;;;2.13;;
28447;SDS011;15675;52.870;-1.416;2023-02-04T04:41:14;5.10;;;2.28;;
28447;SDS011;15675;52.870;-1.416;2023-02-04T04:43:40;9.25;;;2.67;;
28447;SDS011;15675;52.870;-1.416;2023-02-04T04:46:05;3.03;;;2.05;;
28447;SDS011;15675;52.870;-1.416;2023-02-04T04:48:31;10.18;;;2.45;;
28447;SDS011;15675;52.870;-1.416;2023-02-04T04:50:56;4.20;;;2.17;;
28447;SDS011;15675;52.870;-1.416;2023-02-04T04:53:22;6.82;;;2.60;;
28447;SDS011;15675;52.870;-1.416;2023-02-04T04:55:48;9.48;;;2.20;;
28447;SDS011;15675;52.870;-1.416;2023-02-04T04:58:13;5.93;;;2.50;;
28447;SDS011;15675;52.870;-1.416;2023-02-04T05:00:39;3.97;;;1.88;;
28447;SDS011;15675;52.870;-1.416;2023-02-04T05:03:05;9.00;;;2.20;;
28447;SDS011;15675;52.870;-1.416;2023-02-04T05:05:31;3.72;;;2.00;;
28447;SDS011;15675;52.870;-1.416;2023-02-04T05:07:58;7.80;;;1.73;;
28447;SDS011;15675;52.870;-1.416;2023-02-04T05:10:23;5.72;;;1.83;;
28447;SDS011;15675;52.870;-1.416;2023-02-04T05:12:49;7.93;;;2.20;;
28447;SDS011;15675;52.870;-1.416;2023-02-04T05:15:14;6.07;;;1.77;;
28447;SDS011;15675;52.870;-1.416;2023-02-04T05:17:40;5.90;;;2.17;;
28447;SDS011;15675;52.870;-1.416;2023-02-04T05:20:05;6.70;;;1.95;;
28447;SDS011;15675;52.870;-1.416;2023-02-04T05:22:31;5.50;;;1.50;;
28447;SDS011;15675;52.870;-1.416;2023-02-04T05:24:57;4.60;;;1.88;;
28447;SDS011;15675;52.870;-1.416;2023-02-04T05:27:22;8.02;;;1.80;;
28447;SDS011;15675;52.870;-1.416;2023-02-04T05:29:48;5.93;;;1.77;;
28447;SDS011;15675;52.870;-1.416;2023-02-04T05:32:13;5.55;;;1.60;;
28447;SDS011;15675;52.870;-1.416;2023-02-04T05:34:39;4.68;;;2.33;;
28447;SDS011;15675;52.870;-1.416;2023-02-04T05:37:04;4.32;;;1.80;;
28447;SDS011;15675;52.870;-1.416;2023-02-04T05:39:30;2.85;;;1.48;;
28447;SDS011;15675;52.870;-1.416;2023-02-04T05:41:56;6.97;;;1.80;;
28447;SDS011;15675;52.870;-1.416;2023-02-04T05:44:21;5.18;;;1.98;;
28447;SDS011;15675;52.870;-1.416;2023-02-04T05:46:47;6.88;;;2.17;;
28447;SDS011;15675;52.870;-1.416;2023-02-04T05:49:12;4.45;;;1.77;;
28447;SDS011;15675;52.870;-1.416;2023-02-04T05:51:38;5.85;;;1.70;;
28447;SDS011;15675;52.870;-1.416;2023-02-04T05:54:03;4.15;;;1.70;;
28447;SDS011;15675;52.870;-1.416;2023-02-04T05:56:29;9.38;;;2.08;;
28447;SDS011;15675;52.870;-1.416;2023-02-04T05:58:54;13.60;;;2.10;;
28447;SDS011;15675;52.870;-1.416;2023-02-04T06:01:20;11.18;;;1.70;;
28447;SDS011;15675;52.870;-1.416;2023-02-04T06:03:46;4.95;;;1.60;;
28447;SDS011;15675;52.870;-1.416;2023-02-04T06:06:11;8.80;;;2.42;;
28447;SDS011;15675;52.870;-1.416;2023-02-04T06:08:37;7.45;;;1.75;;
28447;SDS011;15675;52.870;-1.416;2023-02-04T06:11:02;6.43;;;2.10;;
28447;SDS011;15675;52.870;-1.416;2023-02-04T06:13:28;2.58;;;1.65;;
28447;SDS011;15675;52.870;-1.416;2023-02-04T06:15:53;4.93;;;1.60;;
28447;SDS011;15675;52.870;-1.416;2023-02-04T06:18:19;8.73;;;1.75;;
28447;SDS011;15675;52.870;-1.416;2023-02-04T06:20:44;4.47;;;1.85;;
28447;SDS011;15675;52.870;-1.416;2023-02-04T06:23:10;6.20;;;1.95;;
28447;SDS011;15675;52.870;-1.416;2023-02-04T06:25:36;6.60;;;2.10;;
28447;SDS011;15675;52.870;-1.416;2023-02-04T06:28:01;3.05;;;2.10;;
28447;SDS011;15675;52.870;-1.416;2023-02-04T06:30:27;3.42;;;1.73;;
28447;SDS011;15675;52.870;-1.416;2023-02-04T06:32:52;5.75;;;2.30;;
28447;SDS011;15675;52.870;-1.416;2023-02-04T06:35:18;3.75;;;1.98;;
28447;SDS011;15675;52.870;-1.416;2023-02-04T06:37:44;6.35;;;1.98;;
28447;SDS011;15675;52.870;-1.416;2023-02-04T06:40:10;3.60;;;2.00;;
28447;SDS011;15675;52.870;-1.416;2023-02-04T06:42:36;4.15;;;1.83;;
28447;SDS011;15675;52.870;-1.416;2023-02-04T06:45:02;5.85;;;1.85;;
28447;SDS011;15675;52.870;-1.416;2023-02-04T06:47:28;6.97;;;2.00;;
28447;SDS011;15675;52.870;-1.416;2023-02-04T06:49:53;3.55;;;1.75;;
28447;SDS011;15675;52.870;-1.416;2023-02-04T06:52:19;6.25;;;1.92;;
28447;SDS011;15675;52.870;-1.416;2023-02-04T06:54:44;3.10;;;1.80;;
28447;SDS011;15675;52.870;-1.416;2023-02-04T06:57:10;5.85;;;1.90;;
28447;SDS011;15675;52.870;-1.416;2023-02-04T06:59:37;3.65;;;1.80;;
28447;SDS011;15675;52.870;-1.416;2023-02-04T07:02:04;5.82;;;1.80;;
28447;SDS011;15675;52.870;-1.416;2023-02-04T07:04:31;7.90;;;1.80;;
28447;SDS011;15675;52.870;-1.416;2023-02-04T07:06:58;3.70;;;1.50;;
28447;SDS011;15675;52.870;-1.416;2023-02-04T07:09:23;5.28;;;1.67;;
28447;SDS011;15675;52.870;-1.416;2023-02-04T07:11:49;4.30;;;1.63;;
28447;SDS011;15675;52.870;-1.416;2023-02-04T07:14:15;5.15;;;1.48;;
28447;SDS011;15675;52.870;-1.416;2023-02-04T07:16:40;2.95;;;1.60;;
28447;SDS011;15675;52.870;-1.416;2023-02-04T07:19:06;7.57;;;1.83;;
28447;SDS011;15675;52.870;-1.416;2023-02-04T07:21:31;10.93;;;2.00;;
28447;SDS011;15675;52.870;-1.416;2023-02-04T07:23:57;4.82;;;1.95;;
28447;SDS011;15675;52.870;-1.416;2023-02-04T07:26:22;5.00;;;1.65;;
28447;SDS011;15675;52.870;-1.416;2023-02-04T07:28:48;5.25;;;1.95;;
28447;SDS011;15675;52.870;-1.416;2023-02-04T07:31:14;2.83;;;1.52;;
28447;SDS011;15675;52.870;-1.416;2023-02-04T07:33:40;4.00;;;1.70;;
28447;SDS011;15675;52.870;-1.416;2023-02-04T07:36:05;5.50;;;1.70;;
28447;SDS011;15675;52.870;-1.416;2023-02-04T07:38:31;7.05;;;2.00;;
28447;SDS011;15675;52.870;-1.416;2023-02-04T07:40:56;3.05;;;1.60;;
28447;SDS011;15675;52.870;-1.416;2023-02-04T07:43:22;5.05;;;1.75;;
28447;SDS011;15675;52.870;-1.416;2023-02-04T07:45:47;6.68;;;1.30;;
28447;SDS011;15675;52.870;-1.416;2023-02-04T07:48:13;2.92;;;1.83;;
28447;SDS011;15675;52.870;-1.416;2023-02-04T07:50:38;4.72;;;1.60;;
28447;SDS011;15675;52.870;-1.416;2023-02-04T07:53:04;4.72;;;1.60;;
28447;SDS011;15675;52.870;-1.416;2023-02-04T07:55:30;5.18;;;1.48;;
28447;SDS011;15675;52.870;-1.416;2023-02-04T07:57:55;4.50;;;1.80;;
28447;SDS011;15675;52.870;-1.416;2023-02-04T08:00:21;4.75;;;1.65;;
28447;SDS011;15675;52.870;-1.416;2023-02-04T08:02:47;4.18;;;1.92;;
28447;SDS011;15675;52.870;-1.416;2023-02-04T08:05:12;5.53;;;1.75;;
28447;SDS011;15675;52.870;-1.416;2023-02-04T08:07:38;6.78;;;1.60;;
28447;SDS011;15675;52.870;-1.416;2023-02-04T08:10:04;5.30;;;2.03;;
28447;SDS011;15675;52.870;-1.416;2023-02-04T08:12:30;5.82;;;2.10;;
28447;SDS011;15675;52.870;-1.416;2023-02-04T08:14:56;5.18;;;1.45;;
28447;SDS011;15675;52.870;-1.416;2023-02-04T08:17:21;5.22;;;1.67;;
28447;SDS011;15675;52.870;-1.416;2023-02-04T08:19:47;5.13;;;2.50;;
28447;SDS011;15675;52.870;-1.416;2023-02-04T08:22:12;3.00;;;1.65;;
28447;SDS011;15675;52.870;-1.416;2023-02-04T08:24:38;4.80;;;1.60;;
28447;SDS011;15675;52.870;-1.416;2023-02-04T08:27:03;5.20;;;1.60;;
28447;SDS011;15675;52.870;-1.416;2023-02-04T08:29:29;5.95;;;1.70;;
28447;SDS011;15675;52.870;-1.416;2023-02-04T08:31:54;4.22;;;1.50;;
28447;SDS011;15675;52.870;-1.416;2023-02-04T08:34:20;6.55;;;2.10;;
28447;SDS011;15675;52.870;-1.416;2023-02-04T08:36:45;3.90;;;1.55;;
28447;SDS011;15675;52.870;-1.416;2023-02-04T08:39:11;6.68;;;1.73;;
28447;SDS011;15675;52.870;-1.416;2023-02-04T08:41:37;2.40;;;1.48;;
28447;SDS011;15675;52.870;-1.416;2023-02-04T08:44:02;3.08;;;1.20;;
28447;SDS011;15675;52.870;-1.416;2023-02-04T08:46:28;4.32;;;1.38;;
28447;SDS011;15675;52.870;-1.416;2023-02-04T08:48:54;3.28;;;1.05;;
28447;SDS011;15675;52.870;-1.416;2023-02-04T08:51:19;2.67;;;1.00;;
28447;SDS011;15675;52.870;-1.416;2023-02-04T08:53:45;4.07;;;1.30;;
28447;SDS011;15675;52.870;-1.416;2023-02-04T08:56:10;3.78;;;1.27;;
28447;SDS011;15675;52.870;-1.416;2023-02-04T08:58:40;4.65;;;1.00;;
28447;SDS011;15675;52.870;-1.416;2023-02-04T09:01:07;3.50;;;1.25;;
28447;SDS011;15675;52.870;-1.416;2023-02-04T09:03:32;4.18;;;1.25;;
28447;SDS011;15675;52.870;-1.416;2023-02-04T09:05:58;2.95;;;1.25;;
28447;SDS011;15675;52.870;-1.416;2023-02-04T09:08:23;1.83;;;1.13;;
28447;SDS011;15675;52.870;-1.416;2023-02-04T09:10:49;5.65;;;1.38;;
28447;SDS011;15675;52.870;-1.416;2023-02-04T09:13:14;4.28;;;1.27;;
28447;SDS011;15675;52.870;-1.416;2023-02-04T09:15:40;6.68;;;1.60;;
28447;SDS011;15675;52.870;-1.416;2023-02-04T09:18:06;8.52;;;1.20;;
28447;SDS011;15675;52.870;-1.416;2023-02-04T09:20:43;2.05;;;0.90;;
28447;SDS011;15675;52.870;-1.416;2023-02-04T09:23:09;5.88;;;1.00;;
28447;SDS011;15675;52.870;-1.416;2023-02-04T09:25:37;8.10;;;1.70;;
28447;SDS011;15675;52.870;-1.416;2023-02-04T09:28:03;1.85;;;1.08;;
28447;SDS011;15675;52.870;-1.416;2023-02-04T09:30:29;8.05;;;1.40;;
28447;SDS011;15675;52.870;-1.416;2023-02-04T09:32:55;6.80;;;1.33;;
28447;SDS011;15675;52.870;-1.416;2023-02-04T09:35:20;5.43;;;1.27;;
28447;SDS011;15675;52.870;-1.416;2023-02-04T09:37:46;3.80;;;0.80;;
28447;SDS011;15675;52.870;-1.416;2023-02-04T09:40:15;3.80;;;0.93;;
28447;SDS011;15675;52.870;-1.416;2023-02-04T09:42:42;3.42;;;1.13;;
28447;SDS011;15675;52.870;-1.416;2023-02-04T09:45:18;5.15;;;1.38;;
28447;SDS011;15675;52.870;-1.416;2023-02-04T09:47:47;3.88;;;0.75;;
28447;SDS011;15675;52.870;-1.416;2023-02-04T09:50:19;5.28;;;1.23;;
28447;SDS011;15675;52.870;-1.416;2023-02-04T09:52:47;5.03;;;1.00;;
28447;SDS011;15675;52.870;-1.416;2023-02-04T09:55:18;3.85;;;0.90;;
28447;SDS011;15675;52.870;-1.416;2023-02-04T09:57:45;4.60;;;1.10;;
28447;SDS011;15675;52.870;-1.416;2023-02-04T10:00:15;5.80;;;1.73;;
28447;SDS011;15675;52.870;-1.416;2023-02-04T10:02:43;4.07;;;0.90;;
28447;SDS011;15675;52.870;-1.416;2023-02-04T10:05:13;4.78;;;1.10;;
28447;SDS011;15675;52.870;-1.416;2023-02-04T10:07:41;4.03;;;1.00;;
28447;SDS011;15675;52.870;-1.416;2023-02-04T10:10:17;4.32;;;0.75;;
28447;SDS011;15675;52.870;-1.416;2023-02-04T10:12:46;3.88;;;1.13;;
28447;SDS011;15675;52.870;-1.416;2023-02-04T10:15:14;2.83;;;1.02;;
28447;SDS011;15675;52.870;-1.416;2023-02-04T10:17:44;3.50;;;1.08;;
28447;SDS011;15675;52.870;-1.416;2023-02-04T10:20:15;2.33;;;0.80;;
28447;SDS011;15675;52.870;-1.416;2023-02-04T10:22:42;5.38;;;1.10;;
28447;SDS011;15675;52.870;-1.416;2023-02-04T10:25:15;7.25;;;1.13;;
28447;SDS011;15675;52.870;-1.416;2023-02-04T10:27:56;3.85;;;1.15;;
28447;SDS011;15675;52.870;-1.416;2023-02-04T10:30:25;3.58;;;0.90;;
28447;SDS011;15675;52.870;-1.416;2023-02-04T10:32:52;2.75;;;1.10;;
28447;SDS011;15675;52.870;-1.416;2023-02-04T10:35:19;2.35;;;0.90;;
28447;SDS011;15675;52.870;-1.416;2023-02-04T10:37:46;4.78;;;1.02;;
28447;SDS011;15675;52.870;-1.416;2023-02-04T10:40:24;5.22;;;1.10;;
28447;SDS011;15675;52.870;-1.416;2023-02-04T10:42:54;4.78;;;0.85;;
28447;SDS011;15675;52.870;-1.416;2023-02-04T10:45:26;4.55;;;1.02;;
28447;SDS011;15675;52.870;-1.416;2023-02-04T10:47:54;3.80;;;0.98;;
28447;SDS011;15675;52.870;-1.416;2023-02-04T10:50:22;3.92;;;1.02;;
28447;SDS011;15675;52.870;-1.416;2023-02-04T10:52:53;4.95;;;1.25;;
28447;SDS011;15675;52.870;-1.416;2023-02-04T10:55:42;9.02;;;1.20;;
28447;SDS011;15675;52.870;-1.416;2023-02-04T10:58:09;7.82;;;1.52;;
28447;SDS011;15675;52.870;-1.416;2023-02-04T11:00:38;5.38;;;1.20;;
28447;SDS011;15675;52.870;-1.416;2023-02-04T11:03:14;4.80;;;0.90;;
28447;SDS011;15675;52.870;-1.416;2023-02-04T11:05:41;6.80;;;1.60;;
28447;SDS011;15675;52.870;-1.416;2023-02-04T11:08:20;7.57;;;1.60;;
28447;SDS011;15675;52.870;-1.416;2023-02-04T11:13:21;10.90;;;1.15;;
28447;SDS011;15675;52.870;-1.416;2023-02-04T11:15:50;5.97;;;1.15;;
28447;SDS011;15675;52.870;-1.416;2023-02-04T11:18:30;5.20;;;1.40;;
28447;SDS011;15675;52.870;-1.416;2023-02-04T11:20:57;6.63;;;1.70;;
28447;SDS011;15675;52.870;-1.416;2023-02-04T11:26:04;4.32;;;1.67;;
28447;SDS011;15675;52.870;-1.416;2023-02-04T11:28:38;8.95;;;1.77;;
28447;SDS011;15675;52.870;-1.416;2023-02-04T11:33:44;6.40;;;1.67;;
28447;SDS011;15675;52.870;-1.416;2023-02-04T11:36:10;4.55;;;1.52;;
28447;SDS011;15675;52.870;-1.416;2023-02-04T11:38:38;3.03;;;1.48;;
28447;SDS011;15675;52.870;-1.416;2023-02-04T11:41:15;6.05;;;1.65;;
28447;SDS011;15675;52.870;-1.416;2023-02-04T11:43:51;6.00;;;1.67;;
28447;SDS011;15675;52.870;-1.416;2023-02-04T11:46:18;4.65;;;1.60;;
28447;SDS011;15675;52.870;-1.416;2023-02-04T11:48:44;5.13;;;1.83;;
28447;SDS011;15675;52.870;-1.416;2023-02-04T11:51:11;5.35;;;1.50;;
28447;SDS011;15675;52.870;-1.416;2023-02-04T11:53:39;7.57;;;1.63;;
28447;SDS011;15675;52.870;-1.416;2023-02-04T11:56:05;6.38;;;2.25;;
28447;SDS011;15675;52.870;-1.416;2023-02-04T11:58:31;9.93;;;1.85;;
28447;SDS011;15675;52.870;-1.416;2023-02-04T12:00:57;5.32;;;2.00;;
28447;SDS011;15675;52.870;-1.416;2023-02-04T12:03:30;8.40;;;2.70;;
28447;SDS011;15675;52.870;-1.416;2023-02-04T12:06:00;7.40;;;2.25;;
28447;SDS011;15675;52.870;-1.416;2023-02-04T12:08:29;8.07;;;2.22;;
28447;SDS011;15675;52.870;-1.416;2023-02-04T12:11:06;5.78;;;1.90;;
28447;SDS011;15675;52.870;-1.416;2023-02-04T12:13:46;6.18;;;1.70;;
28447;SDS011;15675;52.870;-1.416;2023-02-04T12:16:13;7.00;;;1.80;;
28447;SDS011;15675;52.870;-1.416;2023-02-04T12:18:39;8.07;;;2.03;;
28447;SDS011;15675;52.870;-1.416;2023-02-04T12:21:05;6.15;;;2.10;;
28447;SDS011;15675;52.870;-1.416;2023-02-04T12:23:31;4.95;;;1.73;;
28447;SDS011;15675;52.870;-1.416;2023-02-04T12:25:57;10.52;;;1.45;;
28447;SDS011;15675;52.870;-1.416;2023-02-04T12:28:22;6.60;;;1.50;;
28447;SDS011;15675;52.870;-1.416;2023-02-04T12:30:48;8.18;;;1.58;;
28447;SDS011;15675;52.870;-1.416;2023-02-04T12:33:14;5.57;;;1.42;;
28447;SDS011;15675;52.870;-1.416;2023-02-04T12:35:40;6.85;;;1.55;;
28447;SDS011;15675;52.870;-1.416;2023-02-04T12:38:06;8.23;;;1.73;;
28447;SDS011;15675;52.870;-1.416;2023-02-04T12:40:32;5.80;;;2.05;;
28447;SDS011;15675;52.870;-1.416;2023-02-04T12:42:58;2.65;;;1.27;;
28447;SDS011;15675;52.870;-1.416;2023-02-04T12:45:23;9.80;;;1.45;;
28447;SDS011;15675;52.870;-1.416;2023-02-04T12:47:49;5.63;;;1.10;;
28447;SDS011;15675;52.870;-1.416;2023-02-04T12:50:15;4.93;;;1.10;;
28447;SDS011;15675;52.870;-1.416;2023-02-04T12:52:53;3.72;;;1.17;;
28447;SDS011;15675;52.870;-1.416;2023-02-04T12:55:21;5.95;;;1.30;;
28447;SDS011;15675;52.870;-1.416;2023-02-04T12:57:48;10.55;;;1.63;;
28447;SDS011;15675;52.870;-1.416;2023-02-04T13:00:15;5.38;;;1.50;;
28447;SDS011;15675;52.870;-1.416;2023-02-04T13:02:42;7.47;;;1.40;;
28447;SDS011;15675;52.870;-1.416;2023-02-04T13:05:07;6.80;;;1.50;;
28447;SDS011;15675;52.870;-1.416;2023-02-04T13:07:33;3.25;;;1.20;;
28447;SDS011;15675;52.870;-1.416;2023-02-04T13:09:59;3.20;;;1.13;;
28447;SDS011;15675;52.870;-1.416;2023-02-04T13:12:25;6.45;;;1.17;;
28447;SDS011;15675;52.870;-1.416;2023-02-04T13:14:50;5.28;;;1.35;;
28447;SDS011;15675;52.870;-1.416;2023-02-04T13:17:16;4.93;;;1.60;;
28447;SDS011;15675;52.870;-1.416;2023-02-04T13:19:41;5.97;;;1.60;;
28447;SDS011;15675;52.870;-1.416;2023-02-04T13:22:07;14.18;;;1.98;;
28447;SDS011;15675;52.870;-1.416;2023-02-04T13:24:33;6.03;;;1.48;;
28447;SDS011;15675;52.870;-1.416;2023-02-04T13:26:58;4.80;;;1.48;;
28447;SDS011;15675;52.870;-1.416;2023-02-04T13:29:24;3.63;;;1.30;;
28447;SDS011;15675;52.870;-1.416;2023-02-04T13:31:49;3.83;;;1.50;;
28447;SDS011;15675;52.870;-1.416;2023-02-04T13:34:16;4.35;;;1.40;;
28447;SDS011;15675;52.870;-1.416;2023-02-04T13:36:42;3.90;;;1.75;;
28447;SDS011;15675;52.870;-1.416;2023-02-04T13:39:08;6.80;;;1.83;;
28447;SDS011;15675;52.870;-1.416;2023-02-04T13:41:34;6.60;;;3.25;;
28447;SDS011;15675;52.870;-1.416;2023-02-04T13:44:00;4.80;;;1.77;;
28447;SDS011;15675;52.870;-1.416;2023-02-04T13:46:26;4.50;;;1.50;;
28447;SDS011;15675;52.870;-1.416;2023-02-04T13:48:52;3.88;;;2.00;;
28447;SDS011;15675;52.870;-1.416;2023-02-04T13:51:17;5.45;;;1.88;;
28447;SDS011;15675;52.870;-1.416;2023-02-04T13:53:43;4.28;;;1.70;;
28447;SDS011;15675;52.870;-1.416;2023-02-04T13:56:08;3.72;;;1.48;;
28447;SDS011;15675;52.870;-1.416;2023-02-04T13:58:34;5.80;;;1.70;;
28447;SDS011;15675;52.870;-1.416;2023-02-04T14:00:59;7.95;;;2.00;;
28447;SDS011;15675;52.870;-1.416;2023-02-04T14:03:26;7.20;;;1.50;;
28447;SDS011;15675;52.870;-1.416;2023-02-04T14:05:53;5.82;;;1.60;;
28447;SDS011;15675;52.870;-1.416;2023-02-04T14:08:19;5.00;;;2.25;;
28447;SDS011;15675;52.870;-1.416;2023-02-04T14:10:45;3.53;;;1.38;;
28447;SDS011;15675;52.870;-1.416;2023-02-04T14:13:11;3.78;;;1.00;;
28447;SDS011;15675;52.870;-1.416;2023-02-04T14:15:36;5.07;;;1.67;;
28447;SDS011;15675;52.870;-1.416;2023-02-04T14:18:03;6.93;;;1.33;;
28447;SDS011;15675;52.870;-1.416;2023-02-04T14:20:29;3.65;;;1.48;;
28447;SDS011;15675;52.870;-1.416;2023-02-04T14:22:55;5.28;;;1.52;;
28447;SDS011;15675;52.870;-1.416;2023-02-04T14:25:21;5.80;;;1.50;;
28447;SDS011;15675;52.870;-1.416;2023-02-04T14:27:46;5.28;;;1.40;;
28447;SDS011;15675;52.870;-1.416;2023-02-04T14:30:19;4.72;;;1.75;;
28447;SDS011;15675;52.870;-1.416;2023-02-04T14:32:46;4.55;;;1.50;;
28447;SDS011;15675;52.870;-1.416;2023-02-04T14:35:13;4.25;;;1.35;;
28447;SDS011;15675;52.870;-1.416;2023-02-04T14:37:39;6.13;;;1.85;;